createdAt,value
2022-08-09T00:00:13.728Z,65.94
2022-08-09T00:02:42.796Z,65.96
2022-08-09T00:06:18.064Z,66.35
2022-08-09T00:08:10.225Z,66.36
2022-08-09T00:10:38.890Z,66.33
2022-08-09T00:13:16.960Z,66.30
2022-08-09T00:16:00.167Z,66.48
2022-08-09T00:18:34.922Z,66.98
2022-08-09T00:21:05.033Z,66.60
2022-08-09T00:23:55.199Z,66.83
2022-08-09T00:26:19.538Z,66.90
2022-08-09T00:28:57.246Z,66.78
2022-08-09T00:31:59.359Z,66.98
2022-08-09T00:34:12.051Z,67.24
2022-08-09T00:36:39.966Z,67.09
2022-08-09T00:39:10.978Z,67.71
2022-08-09T00:44:13.490Z,67.98
2022-08-09T00:44:43.118Z,67.38
2022-08-09T00:47:15.311Z,66.94
2022-08-09T00:49:52.434Z,67.45
2022-08-09T00:52:22.912Z,67.54
2022-08-09T00:55:00.354Z,68.04
2022-08-09T00:57:33.651Z,68.04
2022-08-09T01:00:20.469Z,68.35
2022-08-09T01:03:40.695Z,69.00
2022-08-09T01:06:54.648Z,69.21
2022-08-09T01:09:39.678Z,69.06
2022-08-09T01:12:12.740Z,69.57
2022-08-09T01:14:55.107Z,69.28
2022-08-09T01:17:59.045Z,69.41
2022-08-09T01:20:55.317Z,69.87
2022-08-09T01:24:03.190Z,69.92
2022-08-09T01:26:46.317Z,69.34
2022-08-09T01:29:28.138Z,69.53
2022-08-09T01:32:32.467Z,69.58
2022-08-09T01:34:49.562Z,69.50
2022-08-09T01:37:42.967Z,69.80
2022-08-09T01:40:09.076Z,70.33
2022-08-09T01:42:37.979Z,71.09
2022-08-09T01:45:07.057Z,71.29
2022-08-09T01:47:34.538Z,71.16
2022-08-09T01:50:12.834Z,70.81
2022-08-09T01:52:43.285Z,70.87
2022-08-09T01:55:11.426Z,71.28
2022-08-09T01:57:46.120Z,71.48
2022-08-09T02:00:35.157Z,71.31
2022-08-09T02:03:06.519Z,71.39
2022-08-09T02:05:37.815Z,72.18
2022-08-09T02:08:35.805Z,72.72
2022-08-09T02:11:17.027Z,72.90
2022-08-09T02:13:55.356Z,72.59
2022-08-09T02:16:59.040Z,72.77
2022-08-09T02:19:22.826Z,72.07
2022-08-09T02:21:55.695Z,72.33
2022-08-09T02:24:26.918Z,72.30
2022-08-09T02:26:58.791Z,72.31
2022-08-09T02:29:31.405Z,72.08
2022-08-09T02:32:03.319Z,71.92
2022-08-09T02:34:41.437Z,72.33
2022-08-09T02:37:22.282Z,72.49
2022-08-09T02:40:01.561Z,72.29
2022-08-09T02:42:39.624Z,72.70
2022-08-09T02:45:15.112Z,72.06
2022-08-09T02:47:57.594Z,72.61
2022-08-09T02:50:31.164Z,71.98
2022-08-09T02:53:05.011Z,72.42
2022-08-09T02:55:46.476Z,72.80
2022-08-09T02:58:35.336Z,72.25
2022-08-09T03:01:08.311Z,72.29
2022-08-09T03:04:18.239Z,73.14
2022-08-09T03:06:27.963Z,73.62
2022-08-09T03:08:57.248Z,73.67
2022-08-09T03:12:04.649Z,74.16
2022-08-09T03:14:13.423Z,73.57
2022-08-09T03:16:45.383Z,73.68
2022-08-09T03:19:58.170Z,74.01
2022-08-09T03:22:12.334Z,74.25
2022-08-09T03:25:05.752Z,74.44
2022-08-09T03:27:45.036Z,75.12
2022-08-09T03:30:14.213Z,75.87
2022-08-09T03:32:58.615Z,75.93
2022-08-09T03:36:13.618Z,75.84
2022-08-09T03:38:16.142Z,75.84
2022-08-09T03:40:55.784Z,75.78
2022-08-09T03:43:22.493Z,76.11
2022-08-09T03:46:04.290Z,76.54
2022-08-09T03:48:37.002Z,76.96
2022-08-09T03:51:57.171Z,77.29
2022-08-09T03:53:58.975Z,77.67
2022-08-09T03:56:26.691Z,77.75
2022-08-09T03:58:54.691Z,78.20
2022-08-09T04:01:24.909Z,78.50
2022-08-09T04:04:02.282Z,78.35
2022-08-09T04:06:31.971Z,78.32
2022-08-09T04:09:02.708Z,78.71
2022-08-09T04:12:11.818Z,78.65
2022-08-09T04:14:59.259Z,79.03
2022-08-09T04:17:29.442Z,79.61
2022-08-09T04:19:56.683Z,79.75
2022-08-09T04:22:23.804Z,79.71
2022-08-09T04:24:50.698Z,79.35
2022-08-09T04:27:22.019Z,78.18
2022-08-09T04:29:50.309Z,76.39
2022-08-09T04:32:23.673Z,74.46
2022-08-09T04:34:58.561Z,73.92
2022-08-09T04:37:45.992Z,74.22
2022-08-09T04:40:28.770Z,74.29
2022-08-09T04:43:01.689Z,74.12
2022-08-09T04:45:30.779Z,73.95
2022-08-09T04:48:03.067Z,73.07
2022-08-09T04:50:35.102Z,72.86
2022-08-09T04:53:13.285Z,72.28
2022-08-09T04:55:57.872Z,72.00
2022-08-09T04:58:27.463Z,70.39
2022-08-09T05:00:55.288Z,70.46
2022-08-09T05:03:41.265Z,70.98
2022-08-09T05:06:11.754Z,70.53
2022-08-09T05:08:43.870Z,71.08
2022-08-09T05:11:14.987Z,70.98
2022-08-09T05:13:42.958Z,70.61
2022-08-09T05:16:10.520Z,69.18
2022-08-09T05:18:57.946Z,68.53
2022-08-09T05:21:29.858Z,67.49
2022-08-09T05:24:01.420Z,67.35
2022-08-09T05:26:36.413Z,67.69
2022-08-09T05:29:17.008Z,67.11
2022-08-09T05:31:46.790Z,67.06
2022-08-09T05:34:18.145Z,66.14
2022-08-09T05:36:46.863Z,64.96
2022-08-09T05:39:29.499Z,63.87
2022-08-09T05:42:04.449Z,61.94
2022-08-09T05:44:32.882Z,60.68
2022-08-09T05:47:01.512Z,60.64
2022-08-09T05:50:31.294Z,61.16
2022-08-09T05:52:21.137Z,57.66
2022-08-09T05:54:51.695Z,56.56
2022-08-09T05:57:19.290Z,55.45
2022-08-09T05:59:46.692Z,55.05
2022-08-09T06:02:17.138Z,54.38
2022-08-09T06:04:46.236Z,55.72
2022-08-09T06:07:21.160Z,54.97
2022-08-09T06:10:01.782Z,56.35
2022-08-09T06:12:30.671Z,51.54
2022-08-09T06:15:00.893Z,52.23
2022-08-09T06:17:39.848Z,53.87
2022-08-09T06:20:07.975Z,50.47
2022-08-09T06:22:35.420Z,48.69
2022-08-09T06:25:02.386Z,50.61
2022-08-09T06:27:41.381Z,51.60
2022-08-09T06:30:14.107Z,47.97
2022-08-09T06:32:59.999Z,48.31
2022-08-09T06:35:35.658Z,47.13
2022-08-09T06:38:16.510Z,49.05
2022-08-09T06:40:43.542Z,46.30
2022-08-09T06:43:11.422Z,47.47
2022-08-09T06:46:07.130Z,46.65
2022-08-09T06:48:30.560Z,46.68
2022-08-09T06:50:59.143Z,45.53
2022-08-09T06:53:25.914Z,45.89
2022-08-09T06:55:53.245Z,44.90
2022-08-09T07:00:52.658Z,43.21
2022-08-09T07:01:08.009Z,44.55
2022-08-09T07:03:39.934Z,42.24
2022-08-09T07:06:19.595Z,40.02
2022-08-09T07:08:49.573Z,38.32
2022-08-09T07:11:17.697Z,36.24
2022-08-09T07:14:05.703Z,34.59
2022-08-09T07:16:41.058Z,35.28
2022-08-09T07:19:15.460Z,32.36
2022-08-09T07:21:55.428Z,32.03
2022-08-09T07:24:32.879Z,31.76
2022-08-09T07:27:11.072Z,33.00
2022-08-09T07:29:57.121Z,31.95
2022-08-09T07:32:33.715Z,31.54
2022-08-09T07:35:10.794Z,29.82
2022-08-09T07:37:45.841Z,28.45
2022-08-09T07:40:17.422Z,25.77
2022-08-09T07:43:00.068Z,25.55
2022-08-09T07:45:38.053Z,23.18
2022-08-09T07:48:29.496Z,24.13
2022-08-09T07:51:09.395Z,22.33
2022-08-09T07:54:04.402Z,21.50
2022-08-09T07:56:33.834Z,20.85
2022-08-09T07:59:00.768Z,20.91
2022-08-09T08:01:33.921Z,20.45
2022-08-09T08:04:02.379Z,20.52
2022-08-09T08:06:31.858Z,19.92
2022-08-09T08:09:04.931Z,19.09
2022-08-09T08:12:11.088Z,19.02
2022-08-09T08:14:19.042Z,18.84
2022-08-09T08:17:00.396Z,18.60
2022-08-09T08:19:31.274Z,17.89
2022-08-09T08:21:58.426Z,17.96
2022-08-09T08:24:34.144Z,17.27
2022-08-09T08:27:17.066Z,16.53
2022-08-09T08:29:48.998Z,17.02
2022-08-09T08:32:18.995Z,16.71
2022-08-09T08:34:55.555Z,16.44
2022-08-09T08:37:41.135Z,16.32
2022-08-09T08:40:09.813Z,17.15
2022-08-09T08:42:38.242Z,17.46
2022-08-09T08:45:13.779Z,18.35
2022-08-09T08:47:42.789Z,17.81
2022-08-09T08:50:15.500Z,17.50
2022-08-09T08:52:57.414Z,16.46
2022-08-09T08:55:26.154Z,16.14
2022-08-09T08:57:56.743Z,16.35
2022-08-09T09:00:27.740Z,15.43
2022-08-09T09:03:08.757Z,15.22
2022-08-09T09:05:58.367Z,14.19
2022-08-09T09:08:32.065Z,14.60
2022-08-09T09:11:05.930Z,14.04
2022-08-09T09:13:55.463Z,12.46
2022-08-09T09:16:35.054Z,14.07
2022-08-09T09:22:13.879Z,14.83
2022-08-09T09:24:56.536Z,13.28
2022-08-09T09:28:05.211Z,13.53
2022-08-09T09:33:13.909Z,12.42
2022-08-09T09:36:01.820Z,13.06
2022-08-09T09:38:49.636Z,13.56
2022-08-09T09:41:32.533Z,12.60
2022-08-09T09:44:12.856Z,12.22
2022-08-09T09:46:45.833Z,13.74
2022-08-09T09:49:49.931Z,13.49
2022-08-09T09:52:33.608Z,12.89
2022-08-09T09:55:16.823Z,12.07
2022-08-09T09:58:18.682Z,13.63
2022-08-09T10:00:54.094Z,11.72
2022-08-09T10:03:42.788Z,11.33
2022-08-09T10:06:12.418Z,10.71
2022-08-09T10:08:54.397Z,10.99
2022-08-09T10:11:59.570Z,10.03
2022-08-09T10:14:32.924Z,10.14
2022-08-09T10:17:40.124Z,10.60
2022-08-09T10:19:59.969Z,11.07
2022-08-09T10:22:35.603Z,9.89
2022-08-09T10:25:11.979Z,10.53
2022-08-09T10:27:56.060Z,11.14
2022-08-09T10:33:44.845Z,10.68
2022-08-09T10:36:11.525Z,9.64
2022-08-09T10:38:57.228Z,10.75
2022-08-09T10:41:27.962Z,11.17
2022-08-09T10:44:01.254Z,10.71
2022-08-09T10:47:00.549Z,10.94
2022-08-09T10:49:49.723Z,10.89
2022-08-09T10:52:42.877Z,10.39
2022-08-09T10:55:28.895Z,9.21
2022-08-09T10:58:34.509Z,9.88
2022-08-09T11:03:03.068Z,9.60
2022-08-09T11:04:29.903Z,9.56
2022-08-09T11:06:58.010Z,9.56
2022-08-09T11:09:41.227Z,8.94
2022-08-09T11:12:18.344Z,9.34
2022-08-09T11:14:57.573Z,8.94
2022-08-09T11:17:31.331Z,9.21
2022-08-09T11:20:07.853Z,9.56
2022-08-09T11:22:44.874Z,8.83
2022-08-09T11:25:18.676Z,8.74
2022-08-09T11:28:07.869Z,8.44
2022-08-09T11:30:47.856Z,7.77
2022-08-09T11:33:18.004Z,7.85
2022-08-09T11:35:49.028Z,8.31
2022-08-09T11:38:18.068Z,8.88
2022-08-09T11:40:45.758Z,8.55
2022-08-09T11:43:32.277Z,9.29
2022-08-09T11:46:01.577Z,9.35
2022-08-09T11:48:30.394Z,8.26
2022-08-09T11:52:49.027Z,8.52
2022-08-09T11:53:59.091Z,8.82
2022-08-09T11:56:41.945Z,9.48
2022-08-09T11:59:30.469Z,10.10
2022-08-09T12:02:17.978Z,8.38
2022-08-09T12:04:54.600Z,7.65
2022-08-09T12:07:29.232Z,9.45
2022-08-09T12:10:14.516Z,7.99
2022-08-09T12:12:57.536Z,7.58
2022-08-09T12:15:49.939Z,9.24
2022-08-09T12:18:29.708Z,8.12
2022-08-09T12:21:00.669Z,8.65
2022-08-09T12:23:56.415Z,7.86
2022-08-09T12:26:25.378Z,7.39
2022-08-09T12:29:10.357Z,6.77
2022-08-09T12:32:02.524Z,8.16
2022-08-09T12:34:35.007Z,8.03
2022-08-09T12:37:21.797Z,8.61
2022-08-09T12:40:08.811Z,7.84
2022-08-09T12:42:36.137Z,8.23
2022-08-09T12:45:32.291Z,8.59
2022-08-09T12:47:52.630Z,8.71
2022-08-09T12:50:23.444Z,8.47
2022-08-09T12:53:09.046Z,7.59
2022-08-09T12:56:11.746Z,8.13
2022-08-09T12:58:27.978Z,8.74
2022-08-09T13:00:56.246Z,9.85
2022-08-09T13:03:58.511Z,9.47
2022-08-09T13:06:25.987Z,8.94
2022-08-09T13:09:07.987Z,8.58
2022-08-09T13:11:39.646Z,8.81
2022-08-09T13:14:41.898Z,9.90
2022-08-09T13:16:59.317Z,8.47
2022-08-09T13:20:06.925Z,9.85
2022-08-09T13:22:36.206Z,9.37
2022-08-09T13:25:07.541Z,8.64
2022-08-09T13:27:39.900Z,9.54
2022-08-09T13:30:49.946Z,10.15
2022-08-09T13:33:05.353Z,9.22
2022-08-09T13:35:34.605Z,8.67
2022-08-09T13:38:55.821Z,8.88
2022-08-09T13:41:54.257Z,8.71
2022-08-09T13:43:52.181Z,9.95
2022-08-09T13:47:13.017Z,9.12
2022-08-09T13:49:05.549Z,9.63
2022-08-09T13:52:00.683Z,9.74
2022-08-09T13:54:30.340Z,11.02
2022-08-09T13:56:57.880Z,11.74
2022-08-09T13:59:25.735Z,12.75
2022-08-09T14:02:04.822Z,13.91
2022-08-09T14:04:31.621Z,14.88
2022-08-09T14:07:00.668Z,16.56
2022-08-09T14:09:34.652Z,17.10
2022-08-09T14:12:06.875Z,18.12
2022-08-09T14:14:44.082Z,20.27
2022-08-09T14:17:12.608Z,21.33
2022-08-09T14:19:39.433Z,21.57
2022-08-09T14:22:07.163Z,22.90
2022-08-09T14:24:35.836Z,21.95
2022-08-09T14:27:19.913Z,21.66
2022-08-09T14:30:34.700Z,21.95
2022-08-09T14:32:34.490Z,23.19
2022-08-09T14:35:06.019Z,22.25
2022-08-09T14:38:01.421Z,23.64
2022-08-09T14:40:19.527Z,22.68
2022-08-09T14:43:04.745Z,24.40
2022-08-09T14:46:54.808Z,23.15
2022-08-09T14:48:18.165Z,24.71
2022-08-09T14:50:44.990Z,24.43
2022-08-09T14:53:13.804Z,22.51
2022-08-09T14:55:50.286Z,23.69
2022-08-09T14:58:17.568Z,22.94
2022-08-09T15:00:48.322Z,23.40
2022-08-09T15:03:20.001Z,24.17
2022-08-09T15:05:52.567Z,22.88
2022-08-09T15:08:26.492Z,23.57
2022-08-09T15:11:00.559Z,24.38
2022-08-09T15:13:56.152Z,25.63
2022-08-09T15:16:18.875Z,25.67
2022-08-09T15:18:49.457Z,26.25
2022-08-09T15:21:56.066Z,25.94
2022-08-09T15:24:12.362Z,26.45
2022-08-09T15:26:46.283Z,26.02
2022-08-09T15:30:55.792Z,27.02
2022-08-09T15:32:00.667Z,27.60
2022-08-09T15:34:33.408Z,28.28
2022-08-09T15:37:04.097Z,28.72
2022-08-09T15:39:49.919Z,28.77
2022-08-09T15:42:18.968Z,29.07
2022-08-09T15:44:46.475Z,29.60
2022-08-09T15:47:14.499Z,30.22
2022-08-09T15:50:03.641Z,30.78
2022-08-09T15:52:33.021Z,29.94
2022-08-09T15:55:00.539Z,30.07
2022-08-09T15:57:35.162Z,30.04
2022-08-09T16:00:24.537Z,30.29
2022-08-09T16:02:54.761Z,30.32
2022-08-09T16:05:26.515Z,30.23
2022-08-09T16:08:15.258Z,30.47
2022-08-09T16:10:57.191Z,30.55
2022-08-09T16:14:02.654Z,30.12
2022-08-09T16:16:18.497Z,30.65
2022-08-09T16:18:46.773Z,30.45
2022-08-09T16:21:17.013Z,30.01
2022-08-09T16:23:50.803Z,30.80
2022-08-09T16:26:33.902Z,31.32
2022-08-09T16:29:11.179Z,30.73
2022-08-09T16:32:17.663Z,30.04
2022-08-09T16:34:54.752Z,30.57
2022-08-09T16:37:18.159Z,30.80
2022-08-09T16:40:00.462Z,30.63
2022-08-09T16:42:31.486Z,31.16
2022-08-09T16:44:58.160Z,31.37
2022-08-09T16:48:43.398Z,31.08
2022-08-09T16:50:28.686Z,31.55
2022-08-09T16:52:59.452Z,31.20
2022-08-09T16:55:26.448Z,31.27
2022-08-09T16:58:10.122Z,30.21
2022-08-09T17:00:38.771Z,30.11
2022-08-09T17:03:22.278Z,30.14
2022-08-09T17:06:03.509Z,30.51
2022-08-09T17:08:45.476Z,30.62
2022-08-09T17:11:40.292Z,31.22
2022-08-09T17:14:25.467Z,32.00
2022-08-09T17:16:54.048Z,32.68
2022-08-09T17:19:20.990Z,32.34
2022-08-09T17:21:47.799Z,32.75
2022-08-09T17:24:28.027Z,33.24
2022-08-09T17:26:58.318Z,33.46
2022-08-09T17:29:26.670Z,33.67
2022-08-09T17:32:01.837Z,33.97
2022-08-09T17:35:01.529Z,34.35
2022-08-09T17:37:19.430Z,35.35
2022-08-09T17:39:52.511Z,34.81
2022-08-09T17:42:41.454Z,35.58
2022-08-09T17:45:15.904Z,34.60
2022-08-09T17:47:55.477Z,35.59
2022-08-09T17:50:35.936Z,35.77
2022-08-09T17:53:19.649Z,35.85
2022-08-09T17:55:54.090Z,36.33
2022-08-09T17:58:26.697Z,36.18
2022-08-09T18:00:55.901Z,36.33
2022-08-09T18:03:24.582Z,36.60
2022-08-09T18:05:53.005Z,36.54
2022-08-09T18:08:21.795Z,36.30
2022-08-09T18:11:02.223Z,36.67
2022-08-09T18:13:43.500Z,38.08
2022-08-09T18:16:29.327Z,36.80
2022-08-09T18:18:57.889Z,37.29
2022-08-09T18:21:27.448Z,37.68
2022-08-09T18:24:12.416Z,37.63
2022-08-09T18:26:46.571Z,37.81
2022-08-09T18:30:38.428Z,37.68
2022-08-09T18:32:05.491Z,38.34
2022-08-09T18:34:35.294Z,37.80
2022-08-09T18:37:10.570Z,38.79
2022-08-09T18:39:53.728Z,38.76
2022-08-09T18:42:21.157Z,37.82
2022-08-09T18:44:56.319Z,38.74
2022-08-09T18:47:27.587Z,38.55
2022-08-09T18:50:02.966Z,39.27
2022-08-09T18:52:35.032Z,38.90
2022-08-09T18:55:02.845Z,39.42
2022-08-09T18:57:38.398Z,39.25
2022-08-09T19:00:19.155Z,40.41
2022-08-09T19:02:48.477Z,39.61
2022-08-09T19:05:28.728Z,39.41
2022-08-09T19:08:10.211Z,39.75
2022-08-09T19:10:39.936Z,39.46
2022-08-09T19:13:22.998Z,40.52
2022-08-09T19:16:01.306Z,40.37
2022-08-09T19:18:33.998Z,40.31
2022-08-09T19:21:09.182Z,41.15
2022-08-09T19:24:33.433Z,41.76
2022-08-09T19:26:31.713Z,42.10
2022-08-09T19:29:01.515Z,42.10
2022-08-09T19:31:45.836Z,42.52
2022-08-09T19:34:22.258Z,42.73
2022-08-09T19:36:52.175Z,42.63
2022-08-09T19:39:21.040Z,42.36
2022-08-09T19:42:06.675Z,42.48
2022-08-09T19:44:33.988Z,42.45
2022-08-09T19:47:01.708Z,42.99
2022-08-09T19:50:09.151Z,43.53
2022-08-09T19:52:15.939Z,43.42
2022-08-09T19:54:45.198Z,42.95
2022-08-09T19:57:12.319Z,43.18
2022-08-09T20:00:06.616Z,44.24
2022-08-09T20:04:11.400Z,44.02
2022-08-09T20:05:16.751Z,44.14
2022-08-09T20:07:59.619Z,44.83
2022-08-09T20:10:34.445Z,46.19
2022-08-09T20:13:05.574Z,46.17
2022-08-09T20:16:37.441Z,46.91
2022-08-09T20:18:22.178Z,47.36
2022-08-09T20:20:51.284Z,48.51
2022-08-09T20:23:22.909Z,48.37
2022-08-09T20:25:51.994Z,48.05
2022-08-09T20:28:27.657Z,48.45
2022-08-09T20:31:04.706Z,49.25
2022-08-09T20:33:38.952Z,49.01
2022-08-09T20:36:07.915Z,50.61
2022-08-09T20:38:50.400Z,49.50
2022-08-09T20:41:32.552Z,50.35
2022-08-09T20:44:03.612Z,50.50
2022-08-09T20:46:41.655Z,51.02
2022-08-09T20:49:10.333Z,50.63
2022-08-09T20:51:40.896Z,51.30
2022-08-09T20:54:16.412Z,51.79
2022-08-09T20:56:49.816Z,51.85
2022-08-09T20:59:49.973Z,51.81
2022-08-09T21:02:10.353Z,52.25
2022-08-09T21:05:52.139Z,53.32
2022-08-09T21:07:30.094Z,52.56
2022-08-09T21:10:06.287Z,53.33
2022-08-09T21:12:37.594Z,53.50
2022-08-09T21:15:05.608Z,53.67
2022-08-09T21:18:11.379Z,54.16
2022-08-09T21:20:26.807Z,54.28
2022-08-09T21:22:57.002Z,55.37
2022-08-09T21:25:44.227Z,55.54
2022-08-09T21:28:33.779Z,54.94
2022-08-09T21:31:16.500Z,55.34
2022-08-09T21:33:51.295Z,55.88
2022-08-09T21:36:28.875Z,56.23
2022-08-09T21:38:59.830Z,55.79
2022-08-09T21:42:05.076Z,54.36
2022-08-09T21:44:33.853Z,54.10
2022-08-09T21:47:09.299Z,54.26
2022-08-09T21:49:42.912Z,55.31
2022-08-09T21:52:17.754Z,55.94
2022-08-09T21:54:59.517Z,56.11
2022-08-09T21:57:37.097Z,56.10
2022-08-09T22:00:10.949Z,56.99
2022-08-09T22:02:40.183Z,57.21
2022-08-09T22:05:22.882Z,57.20
2022-08-09T22:07:53.406Z,56.81
2022-08-09T22:10:22.798Z,57.19
2022-08-09T22:12:50.474Z,57.30
2022-08-09T22:15:17.296Z,56.00
2022-08-09T22:17:47.527Z,56.49
2022-08-09T22:20:16.822Z,55.86
2022-08-09T22:22:48.874Z,55.87
2022-08-09T22:26:05.422Z,56.00
2022-08-09T22:28:06.513Z,56.56
2022-08-09T22:30:34.037Z,57.75
2022-08-09T22:33:01.567Z,57.64
2022-08-09T22:36:03.348Z,56.97
2022-08-09T22:38:16.459Z,56.81
2022-08-09T22:40:49.236Z,56.42
2022-08-09T22:44:00.788Z,56.11
2022-08-09T22:48:14.400Z,55.54
2022-08-09T22:49:01.932Z,54.29
2022-08-09T22:51:38.120Z,54.28
2022-08-09T22:54:08.059Z,55.03
2022-08-09T22:56:35.077Z,55.20
2022-08-09T22:59:05.766Z,55.04
2022-08-09T23:01:50.928Z,54.19
2022-08-09T23:04:18.166Z,54.12
2022-08-09T23:07:03.779Z,53.72
2022-08-09T23:09:39.181Z,53.61
2022-08-09T23:12:06.341Z,54.34
2022-08-09T23:14:37.600Z,54.23
2022-08-09T23:17:10.071Z,54.55
2022-08-09T23:20:07.504Z,54.32
2022-08-09T23:22:23.717Z,55.75
2022-08-09T23:24:50.403Z,55.90
2022-08-09T23:27:17.244Z,56.84
2022-08-09T23:29:43.987Z,56.74
2022-08-09T23:32:12.339Z,57.18
2022-08-09T23:34:39.928Z,57.10
2022-08-09T23:37:07.566Z,57.47
2022-08-09T23:39:34.405Z,59.08
2022-08-09T23:42:01.083Z,59.48
2022-08-09T23:44:27.969Z,58.82
2022-08-09T23:46:57.684Z,58.09
2022-08-09T23:49:25.711Z,58.25
2022-08-09T23:51:53.846Z,57.88
2022-08-09T23:54:21.520Z,58.55
2022-08-09T23:56:58.142Z,59.31
2022-08-09T23:59:25.531Z,58.96
